sensor_id;sensor_type;location;lat;lon;timestamp;P1;durP1;ratioP1;P2;durP2;ratioP2
21352;SDS011;10834;52.268;6.770;2022-11-20T00:02:11;25.13;;;14.00;;
21352;SDS011;10834;52.268;6.770;2022-11-20T00:04:57;25.70;;;13.80;;
21352;SDS011;10834;52.268;6.770;2022-11-20T00:07:43;26.07;;;15.00;;
21352;SDS011;10834;52.268;6.770;2022-11-20T00:10:29;28.37;;;15.33;;
21352;SDS011;10834;52.268;6.770;2022-11-20T00:13:15;22.77;;;14.90;;
21352;SDS011;10834;52.268;6.770;2022-11-20T00:16:02;25.60;;;14.00;;
21352;SDS011;10834;52.268;6.770;2022-11-20T00:18:50;21.93;;;13.37;;
21352;SDS011;10834;52.268;6.770;2022-11-20T00:21:36;24.20;;;12.63;;
21352;SDS011;10834;52.268;6.770;2022-11-20T00:24:22;21.53;;;12.93;;
21352;SDS011;10834;52.268;6.770;2022-11-20T00:27:08;19.53;;;11.90;;
21352;SDS011;10834;52.268;6.770;2022-11-20T00:29:54;23.90;;;14.10;;
21352;SDS011;10834;52.268;6.770;2022-11-20T00:32:41;22.10;;;13.23;;
21352;SDS011;10834;52.268;6.770;2022-11-20T00:35:27;21.37;;;12.70;;
21352;SDS011;10834;52.268;6.770;2022-11-20T00:38:13;27.07;;;14.43;;
21352;SDS011;10834;52.268;6.770;2022-11-20T00:40:59;21.83;;;13.33;;
21352;SDS011;10834;52.268;6.770;2022-11-20T00:43:47;24.67;;;14.50;;
21352;SDS011;10834;52.268;6.770;2022-11-20T00:46:33;25.40;;;14.77;;
21352;SDS011;10834;52.268;6.770;2022-11-20T00:49:19;22.93;;;12.93;;
21352;SDS011;10834;52.268;6.770;2022-11-20T00:52:05;30.40;;;14.63;;
21352;SDS011;10834;52.268;6.770;2022-11-20T00:54:51;23.67;;;14.00;;
21352;SDS011;10834;52.268;6.770;2022-11-20T00:57:37;27.73;;;14.70;;
21352;SDS011;10834;52.268;6.770;2022-11-20T01:00:23;26.50;;;14.00;;
21352;SDS011;10834;52.268;6.770;2022-11-20T01:03:09;21.47;;;13.77;;
21352;SDS011;10834;52.268;6.770;2022-11-20T01:05:58;24.33;;;13.77;;
21352;SDS011;10834;52.268;6.770;2022-11-20T01:08:47;27.83;;;14.87;;
21352;SDS011;10834;52.268;6.770;2022-11-20T01:11:35;25.80;;;15.03;;
21352;SDS011;10834;52.268;6.770;2022-11-20T01:14:22;29.10;;;14.40;;
21352;SDS011;10834;52.268;6.770;2022-11-20T01:17:09;26.17;;;14.77;;
21352;SDS011;10834;52.268;6.770;2022-11-20T01:19:55;28.43;;;15.60;;
21352;SDS011;10834;52.268;6.770;2022-11-20T01:22:41;24.33;;;14.93;;
21352;SDS011;10834;52.268;6.770;2022-11-20T01:25:27;25.17;;;15.03;;
21352;SDS011;10834;52.268;6.770;2022-11-20T01:28:13;28.23;;;15.33;;
21352;SDS011;10834;52.268;6.770;2022-11-20T01:30:59;23.33;;;14.43;;
21352;SDS011;10834;52.268;6.770;2022-11-20T01:33:46;26.27;;;14.43;;
21352;SDS011;10834;52.268;6.770;2022-11-20T01:36:36;28.37;;;14.33;;
21352;SDS011;10834;52.268;6.770;2022-11-20T01:39:23;26.57;;;15.00;;
21352;SDS011;10834;52.268;6.770;2022-11-20T01:42:10;22.17;;;13.60;;
21352;SDS011;10834;52.268;6.770;2022-11-20T01:48:40;23.13;;;13.10;;
21352;SDS011;10834;52.268;6.770;2022-11-20T01:51:41;24.90;;;14.23;;
21352;SDS011;10834;52.268;6.770;2022-11-20T01:54:35;22.43;;;13.30;;
21352;SDS011;10834;52.268;6.770;2022-11-20T01:57:25;27.03;;;14.40;;
21352;SDS011;10834;52.268;6.770;2022-11-20T02:00:15;25.90;;;15.40;;
21352;SDS011;10834;52.268;6.770;2022-11-20T02:03:04;23.17;;;14.07;;
21352;SDS011;10834;52.268;6.770;2022-11-20T02:09:03;20.30;;;12.93;;
21352;SDS011;10834;52.268;6.770;2022-11-20T02:11:50;20.87;;;11.87;;
21352;SDS011;10834;52.268;6.770;2022-11-20T02:14:36;20.83;;;12.93;;
21352;SDS011;10834;52.268;6.770;2022-11-20T02:17:23;25.87;;;12.33;;
21352;SDS011;10834;52.268;6.770;2022-11-20T02:20:10;24.93;;;13.30;;
21352;SDS011;10834;52.268;6.770;2022-11-20T02:25:54;23.17;;;14.03;;
21352;SDS011;10834;52.268;6.770;2022-11-20T02:28:41;19.77;;;12.13;;
21352;SDS011;10834;52.268;6.770;2022-11-20T02:31:27;24.47;;;12.90;;
21352;SDS011;10834;52.268;6.770;2022-11-20T02:34:13;21.77;;;12.27;;
21352;SDS011;10834;52.268;6.770;2022-11-20T02:36:59;22.03;;;12.97;;
21352;SDS011;10834;52.268;6.770;2022-11-20T02:39:46;20.33;;;12.23;;
21352;SDS011;10834;52.268;6.770;2022-11-20T02:42:35;20.37;;;13.33;;
21352;SDS011;10834;52.268;6.770;2022-11-20T02:45:22;20.20;;;12.13;;
21352;SDS011;10834;52.268;6.770;2022-11-20T02:48:09;25.37;;;12.77;;
21352;SDS011;10834;52.268;6.770;2022-11-20T02:50:55;21.83;;;13.10;;
21352;SDS011;10834;52.268;6.770;2022-11-20T02:53:41;21.10;;;12.97;;
21352;SDS011;10834;52.268;6.770;2022-11-20T02:56:27;23.63;;;12.20;;
21352;SDS011;10834;52.268;6.770;2022-11-20T02:59:13;24.03;;;12.00;;
21352;SDS011;10834;52.268;6.770;2022-11-20T03:01:59;22.03;;;13.67;;
21352;SDS011;10834;52.268;6.770;2022-11-20T03:04:45;22.57;;;14.10;;
21352;SDS011;10834;52.268;6.770;2022-11-20T03:07:31;23.00;;;11.27;;
21352;SDS011;10834;52.268;6.770;2022-11-20T03:10:17;24.33;;;14.13;;
21352;SDS011;10834;52.268;6.770;2022-11-20T03:13:03;24.57;;;13.43;;
21352;SDS011;10834;52.268;6.770;2022-11-20T03:15:49;21.63;;;13.17;;
21352;SDS011;10834;52.268;6.770;2022-11-20T03:18:35;20.93;;;12.93;;
21352;SDS011;10834;52.268;6.770;2022-11-20T03:21:21;21.63;;;13.13;;
21352;SDS011;10834;52.268;6.770;2022-11-20T03:24:07;25.37;;;11.87;;
21352;SDS011;10834;52.268;6.770;2022-11-20T03:26:53;21.10;;;12.73;;
21352;SDS011;10834;52.268;6.770;2022-11-20T03:29:39;24.27;;;12.33;;
21352;SDS011;10834;52.268;6.770;2022-11-20T03:32:25;21.03;;;12.97;;
21352;SDS011;10834;52.268;6.770;2022-11-20T03:35:12;20.53;;;13.17;;
21352;SDS011;10834;52.268;6.770;2022-11-20T03:37:58;22.33;;;12.50;;
21352;SDS011;10834;52.268;6.770;2022-11-20T03:40:44;27.80;;;12.73;;
21352;SDS011;10834;52.268;6.770;2022-11-20T03:43:30;28.97;;;14.87;;
21352;SDS011;10834;52.268;6.770;2022-11-20T03:46:16;26.63;;;14.40;;
21352;SDS011;10834;52.268;6.770;2022-11-20T03:49:03;25.70;;;13.20;;
21352;SDS011;10834;52.268;6.770;2022-11-20T03:51:49;27.27;;;14.20;;
21352;SDS011;10834;52.268;6.770;2022-11-20T03:54:35;26.30;;;14.57;;
21352;SDS011;10834;52.268;6.770;2022-11-20T03:57:21;26.07;;;14.10;;
21352;SDS011;10834;52.268;6.770;2022-11-20T04:00:08;23.23;;;13.63;;
21352;SDS011;10834;52.268;6.770;2022-11-20T04:02:57;27.93;;;14.77;;
21352;SDS011;10834;52.268;6.770;2022-11-20T04:05:44;19.67;;;12.00;;
21352;SDS011;10834;52.268;6.770;2022-11-20T04:08:30;27.97;;;14.13;;
21352;SDS011;10834;52.268;6.770;2022-11-20T04:11:21;25.03;;;13.13;;
21352;SDS011;10834;52.268;6.770;2022-11-20T04:14:12;20.83;;;13.60;;
21352;SDS011;10834;52.268;6.770;2022-11-20T04:16:59;23.23;;;13.20;;
21352;SDS011;10834;52.268;6.770;2022-11-20T04:19:45;22.47;;;13.27;;
21352;SDS011;10834;52.268;6.770;2022-11-20T04:22:32;22.97;;;12.77;;
21352;SDS011;10834;52.268;6.770;2022-11-20T04:25:18;20.37;;;12.53;;
21352;SDS011;10834;52.268;6.770;2022-11-20T04:28:04;25.30;;;14.37;;
21352;SDS011;10834;52.268;6.770;2022-11-20T04:30:50;24.90;;;13.10;;
21352;SDS011;10834;52.268;6.770;2022-11-20T04:33:36;19.87;;;13.23;;
21352;SDS011;10834;52.268;6.770;2022-11-20T04:36:24;22.37;;;13.53;;
21352;SDS011;10834;52.268;6.770;2022-11-20T04:39:11;23.37;;;12.80;;
21352;SDS011;10834;52.268;6.770;2022-11-20T04:41:59;25.63;;;13.13;;
21352;SDS011;10834;52.268;6.770;2022-11-20T04:45:04;21.50;;;12.13;;
21352;SDS011;10834;52.268;6.770;2022-11-20T04:47:50;20.00;;;12.90;;
21352;SDS011;10834;52.268;6.770;2022-11-20T04:50:39;19.10;;;11.80;;
21352;SDS011;10834;52.268;6.770;2022-11-20T04:53:26;23.73;;;14.00;;
21352;SDS011;10834;52.268;6.770;2022-11-20T04:56:12;28.03;;;14.00;;
21352;SDS011;10834;52.268;6.770;2022-11-20T04:59:02;20.97;;;12.87;;
21352;SDS011;10834;52.268;6.770;2022-11-20T05:01:48;24.17;;;12.80;;
21352;SDS011;10834;52.268;6.770;2022-11-20T05:04:34;22.73;;;12.73;;
21352;SDS011;10834;52.268;6.770;2022-11-20T05:07:20;21.67;;;14.07;;
21352;SDS011;10834;52.268;6.770;2022-11-20T05:10:06;23.03;;;12.10;;
21352;SDS011;10834;52.268;6.770;2022-11-20T05:12:52;20.33;;;12.27;;
21352;SDS011;10834;52.268;6.770;2022-11-20T05:15:39;21.03;;;12.23;;
21352;SDS011;10834;52.268;6.770;2022-11-20T05:18:25;23.93;;;12.27;;
21352;SDS011;10834;52.268;6.770;2022-11-20T05:21:11;26.73;;;13.93;;
21352;SDS011;10834;52.268;6.770;2022-11-20T05:23:58;24.17;;;13.53;;
21352;SDS011;10834;52.268;6.770;2022-11-20T05:26:44;21.80;;;12.90;;
21352;SDS011;10834;52.268;6.770;2022-11-20T05:29:30;19.90;;;11.90;;
21352;SDS011;10834;52.268;6.770;2022-11-20T05:32:16;16.70;;;11.43;;
21352;SDS011;10834;52.268;6.770;2022-11-20T05:35:02;26.20;;;13.53;;
21352;SDS011;10834;52.268;6.770;2022-11-20T05:37:48;24.27;;;13.10;;
21352;SDS011;10834;52.268;6.770;2022-11-20T05:40:34;22.73;;;12.40;;
21352;SDS011;10834;52.268;6.770;2022-11-20T05:43:20;26.20;;;13.43;;
21352;SDS011;10834;52.268;6.770;2022-11-20T05:46:07;24.10;;;12.57;;
21352;SDS011;10834;52.268;6.770;2022-11-20T05:48:55;22.30;;;13.40;;
21352;SDS011;10834;52.268;6.770;2022-11-20T05:51:42;23.40;;;13.37;;
21352;SDS011;10834;52.268;6.770;2022-11-20T05:54:28;24.83;;;12.63;;
21352;SDS011;10834;52.268;6.770;2022-11-20T05:57:14;24.70;;;13.47;;
21352;SDS011;10834;52.268;6.770;2022-11-20T06:00:00;23.43;;;13.50;;
21352;SDS011;10834;52.268;6.770;2022-11-20T06:02:46;27.77;;;15.43;;
21352;SDS011;10834;52.268;6.770;2022-11-20T06:05:33;25.60;;;14.77;;
21352;SDS011;10834;52.268;6.770;2022-11-20T06:08:19;22.67;;;13.33;;
21352;SDS011;10834;52.268;6.770;2022-11-20T06:11:06;24.83;;;12.63;;
21352;SDS011;10834;52.268;6.770;2022-11-20T06:13:53;24.00;;;12.80;;
21352;SDS011;10834;52.268;6.770;2022-11-20T06:16:39;30.77;;;13.17;;
21352;SDS011;10834;52.268;6.770;2022-11-20T06:19:25;21.47;;;12.17;;
21352;SDS011;10834;52.268;6.770;2022-11-20T06:22:11;22.50;;;12.20;;
21352;SDS011;10834;52.268;6.770;2022-11-20T06:24:57;20.80;;;11.80;;
21352;SDS011;10834;52.268;6.770;2022-11-20T06:27:43;17.50;;;10.43;;
21352;SDS011;10834;52.268;6.770;2022-11-20T06:30:29;21.67;;;12.10;;
21352;SDS011;10834;52.268;6.770;2022-11-20T06:33:15;20.10;;;11.87;;
21352;SDS011;10834;52.268;6.770;2022-11-20T06:36:02;17.87;;;11.47;;
21352;SDS011;10834;52.268;6.770;2022-11-20T06:38:49;21.63;;;11.57;;
21352;SDS011;10834;52.268;6.770;2022-11-20T06:41:35;22.67;;;11.67;;
21352;SDS011;10834;52.268;6.770;2022-11-20T06:44:21;24.03;;;11.67;;
21352;SDS011;10834;52.268;6.770;2022-11-20T06:47:07;20.40;;;11.70;;
21352;SDS011;10834;52.268;6.770;2022-11-20T06:49:53;21.63;;;12.93;;
21352;SDS011;10834;52.268;6.770;2022-11-20T06:52:39;23.17;;;13.67;;
21352;SDS011;10834;52.268;6.770;2022-11-20T06:55:25;24.30;;;12.73;;
21352;SDS011;10834;52.268;6.770;2022-11-20T06:58:12;22.17;;;12.10;;
21352;SDS011;10834;52.268;6.770;2022-11-20T07:01:06;19.47;;;12.03;;
21352;SDS011;10834;52.268;6.770;2022-11-20T07:03:54;20.33;;;12.53;;
21352;SDS011;10834;52.268;6.770;2022-11-20T07:06:40;20.60;;;11.13;;
21352;SDS011;10834;52.268;6.770;2022-11-20T07:09:27;18.13;;;11.23;;
21352;SDS011;10834;52.268;6.770;2022-11-20T07:12:13;24.57;;;11.67;;
21352;SDS011;10834;52.268;6.770;2022-11-20T07:14:59;21.80;;;12.27;;
21352;SDS011;10834;52.268;6.770;2022-11-20T07:17:45;24.13;;;12.83;;
21352;SDS011;10834;52.268;6.770;2022-11-20T07:20:31;24.80;;;12.43;;
21352;SDS011;10834;52.268;6.770;2022-11-20T07:23:17;19.77;;;12.00;;
21352;SDS011;10834;52.268;6.770;2022-11-20T07:26:07;22.87;;;12.43;;
21352;SDS011;10834;52.268;6.770;2022-11-20T07:28:54;19.57;;;11.77;;
21352;SDS011;10834;52.268;6.770;2022-11-20T07:31:40;24.77;;;11.30;;
21352;SDS011;10834;52.268;6.770;2022-11-20T07:34:26;21.70;;;12.20;;
21352;SDS011;10834;52.268;6.770;2022-11-20T07:37:13;24.23;;;13.63;;
21352;SDS011;10834;52.268;6.770;2022-11-20T07:39:59;22.50;;;13.13;;
21352;SDS011;10834;52.268;6.770;2022-11-20T07:42:49;22.13;;;13.47;;
21352;SDS011;10834;52.268;6.770;2022-11-20T07:45:36;23.27;;;13.93;;
21352;SDS011;10834;52.268;6.770;2022-11-20T07:48:22;25.27;;;14.83;;
21352;SDS011;10834;52.268;6.770;2022-11-20T07:51:09;29.33;;;15.60;;
21352;SDS011;10834;52.268;6.770;2022-11-20T07:53:55;25.90;;;14.37;;
21352;SDS011;10834;52.268;6.770;2022-11-20T07:56:41;19.43;;;12.37;;
21352;SDS011;10834;52.268;6.770;2022-11-20T07:59:27;20.83;;;12.37;;
21352;SDS011;10834;52.268;6.770;2022-11-20T08:02:13;17.23;;;11.67;;
21352;SDS011;10834;52.268;6.770;2022-11-20T08:04:59;24.10;;;12.77;;
21352;SDS011;10834;52.268;6.770;2022-11-20T08:07:45;21.93;;;12.43;;
21352;SDS011;10834;52.268;6.770;2022-11-20T08:10:31;26.13;;;13.40;;
21352;SDS011;10834;52.268;6.770;2022-11-20T08:13:17;19.77;;;12.20;;
21352;SDS011;10834;52.268;6.770;2022-11-20T08:16:22;21.03;;;12.93;;
21352;SDS011;10834;52.268;6.770;2022-11-20T08:19:08;23.60;;;13.50;;
21352;SDS011;10834;52.268;6.770;2022-11-20T08:21:54;24.37;;;14.00;;
21352;SDS011;10834;52.268;6.770;2022-11-20T08:24:41;23.97;;;13.70;;
21352;SDS011;10834;52.268;6.770;2022-11-20T08:27:27;24.40;;;13.53;;
21352;SDS011;10834;52.268;6.770;2022-11-20T08:30:13;20.63;;;13.40;;
21352;SDS011;10834;52.268;6.770;2022-11-20T08:33:03;20.60;;;13.00;;
21352;SDS011;10834;52.268;6.770;2022-11-20T08:35:57;23.83;;;14.60;;
21352;SDS011;10834;52.268;6.770;2022-11-20T08:38:48;24.57;;;13.20;;
21352;SDS011;10834;52.268;6.770;2022-11-20T08:41:35;23.20;;;14.57;;
21352;SDS011;10834;52.268;6.770;2022-11-20T08:44:22;20.90;;;13.07;;
21352;SDS011;10834;52.268;6.770;2022-11-20T08:47:08;23.47;;;13.67;;
21352;SDS011;10834;52.268;6.770;2022-11-20T08:49:54;22.90;;;14.50;;
21352;SDS011;10834;52.268;6.770;2022-11-20T08:52:40;26.07;;;14.07;;
21352;SDS011;10834;52.268;6.770;2022-11-20T08:55:26;26.13;;;14.97;;
21352;SDS011;10834;52.268;6.770;2022-11-20T08:58:13;23.83;;;14.50;;
21352;SDS011;10834;52.268;6.770;2022-11-20T09:00:59;26.20;;;15.03;;
21352;SDS011;10834;52.268;6.770;2022-11-20T09:03:45;28.53;;;15.80;;
21352;SDS011;10834;52.268;6.770;2022-11-20T09:06:31;27.60;;;14.73;;
21352;SDS011;10834;52.268;6.770;2022-11-20T09:09:20;23.67;;;14.77;;
21352;SDS011;10834;52.268;6.770;2022-11-20T09:12:06;23.70;;;15.03;;
21352;SDS011;10834;52.268;6.770;2022-11-20T09:14:52;28.07;;;14.77;;
21352;SDS011;10834;52.268;6.770;2022-11-20T09:17:38;24.20;;;16.10;;
21352;SDS011;10834;52.268;6.770;2022-11-20T09:20:25;28.90;;;16.77;;
21352;SDS011;10834;52.268;6.770;2022-11-20T09:23:12;30.30;;;16.47;;
21352;SDS011;10834;52.268;6.770;2022-11-20T09:25:58;29.57;;;16.90;;
21352;SDS011;10834;52.268;6.770;2022-11-20T09:28:46;23.47;;;16.33;;
21352;SDS011;10834;52.268;6.770;2022-11-20T09:31:32;23.67;;;15.17;;
21352;SDS011;10834;52.268;6.770;2022-11-20T09:34:18;28.13;;;14.20;;
21352;SDS011;10834;52.268;6.770;2022-11-20T09:37:04;31.07;;;16.03;;
21352;SDS011;10834;52.268;6.770;2022-11-20T09:39:51;26.33;;;14.37;;
21352;SDS011;10834;52.268;6.770;2022-11-20T09:42:38;24.73;;;15.93;;
21352;SDS011;10834;52.268;6.770;2022-11-20T09:48:43;27.70;;;15.13;;
21352;SDS011;10834;52.268;6.770;2022-11-20T09:54:34;26.40;;;15.67;;
21352;SDS011;10834;52.268;6.770;2022-11-20T09:57:25;30.07;;;17.47;;
21352;SDS011;10834;52.268;6.770;2022-11-20T10:00:23;25.30;;;15.00;;
21352;SDS011;10834;52.268;6.770;2022-11-20T10:06:02;25.50;;;16.23;;
21352;SDS011;10834;52.268;6.770;2022-11-20T10:08:55;24.13;;;14.97;;
21352;SDS011;10834;52.268;6.770;2022-11-20T10:14:46;27.07;;;15.67;;
21352;SDS011;10834;52.268;6.770;2022-11-20T10:29:36;24.23;;;14.80;;
21352;SDS011;10834;52.268;6.770;2022-11-20T10:32:26;24.30;;;15.23;;
21352;SDS011;10834;52.268;6.770;2022-11-20T10:35:41;22.77;;;14.80;;
21352;SDS011;10834;52.268;6.770;2022-11-20T10:38:35;24.20;;;14.07;;
21352;SDS011;10834;52.268;6.770;2022-11-20T10:41:34;24.93;;;15.23;;
21352;SDS011;10834;52.268;6.770;2022-11-20T10:44:29;25.97;;;15.60;;
21352;SDS011;10834;52.268;6.770;2022-11-20T10:47:34;22.90;;;14.73;;
21352;SDS011;10834;52.268;6.770;2022-11-20T10:50:21;25.83;;;14.27;;
21352;SDS011;10834;52.268;6.770;2022-11-20T10:56:22;20.97;;;13.73;;
21352;SDS011;10834;52.268;6.770;2022-11-20T11:02:35;22.00;;;14.27;;
21352;SDS011;10834;52.268;6.770;2022-11-20T11:05:44;23.60;;;14.40;;
21352;SDS011;10834;52.268;6.770;2022-11-20T11:08:37;20.17;;;15.33;;
21352;SDS011;10834;52.268;6.770;2022-11-20T11:11:28;21.83;;;14.43;;
21352;SDS011;10834;52.268;6.770;2022-11-20T11:14:17;23.80;;;14.90;;
21352;SDS011;10834;52.268;6.770;2022-11-20T11:17:03;24.10;;;15.07;;
21352;SDS011;10834;52.268;6.770;2022-11-20T11:19:59;23.73;;;15.70;;
21352;SDS011;10834;52.268;6.770;2022-11-20T11:22:46;25.93;;;16.37;;
21352;SDS011;10834;52.268;6.770;2022-11-20T11:25:36;24.80;;;15.40;;
21352;SDS011;10834;52.268;6.770;2022-11-20T11:28:22;22.00;;;14.47;;
21352;SDS011;10834;52.268;6.770;2022-11-20T11:31:21;23.40;;;16.00;;
21352;SDS011;10834;52.268;6.770;2022-11-20T11:34:15;26.27;;;16.40;;
21352;SDS011;10834;52.268;6.770;2022-11-20T11:37:03;27.87;;;16.57;;
21352;SDS011;10834;52.268;6.770;2022-11-20T11:39:51;25.43;;;16.27;;
21352;SDS011;10834;52.268;6.770;2022-11-20T11:42:41;26.10;;;16.17;;
21352;SDS011;10834;52.268;6.770;2022-11-20T11:45:29;22.70;;;16.70;;
21352;SDS011;10834;52.268;6.770;2022-11-20T11:48:15;27.40;;;16.67;;
21352;SDS011;10834;52.268;6.770;2022-11-20T11:51:02;23.87;;;16.57;;
21352;SDS011;10834;52.268;6.770;2022-11-20T11:53:48;26.03;;;16.17;;
21352;SDS011;10834;52.268;6.770;2022-11-20T11:56:35;23.30;;;15.20;;
21352;SDS011;10834;52.268;6.770;2022-11-20T12:00:08;22.73;;;14.50;;
21352;SDS011;10834;52.268;6.770;2022-11-20T12:05:41;17.10;;;11.80;;
21352;SDS011;10834;52.268;6.770;2022-11-20T12:11:58;16.60;;;11.03;;
21352;SDS011;10834;52.268;6.770;2022-11-20T12:14:50;15.77;;;10.00;;
21352;SDS011;10834;52.268;6.770;2022-11-20T12:17:40;14.70;;;10.47;;
21352;SDS011;10834;52.268;6.770;2022-11-20T12:20:28;13.80;;;9.73;;
21352;SDS011;10834;52.268;6.770;2022-11-20T12:23:31;13.83;;;9.43;;
21352;SDS011;10834;52.268;6.770;2022-11-20T12:26:45;14.00;;;8.40;;
21352;SDS011;10834;52.268;6.770;2022-11-20T12:33:09;18.00;;;10.90;;
21352;SDS011;10834;52.268;6.770;2022-11-20T12:39:28;13.50;;;10.33;;
21352;SDS011;10834;52.268;6.770;2022-11-20T12:42:32;14.30;;;9.83;;
21352;SDS011;10834;52.268;6.770;2022-11-20T12:51:42;12.73;;;9.83;;
21352;SDS011;10834;52.268;6.770;2022-11-20T12:54:50;14.23;;;9.33;;
21352;SDS011;10834;52.268;6.770;2022-11-20T12:57:55;12.50;;;8.63;;
21352;SDS011;10834;52.268;6.770;2022-11-20T13:00:54;13.83;;;10.53;;
21352;SDS011;10834;52.268;6.770;2022-11-20T13:07:21;16.40;;;9.57;;
21352;SDS011;10834;52.268;6.770;2022-11-20T13:10:14;14.03;;;9.50;;
21352;SDS011;10834;52.268;6.770;2022-11-20T13:13:13;15.33;;;10.63;;
21352;SDS011;10834;52.268;6.770;2022-11-20T13:16:08;16.37;;;10.00;;
21352;SDS011;10834;52.268;6.770;2022-11-20T13:19:11;14.33;;;9.47;;
21352;SDS011;10834;52.268;6.770;2022-11-20T13:22:00;15.40;;;10.17;;
21352;SDS011;10834;52.268;6.770;2022-11-20T13:24:50;19.10;;;10.20;;
21352;SDS011;10834;52.268;6.770;2022-11-20T13:27:46;15.90;;;9.07;;
21352;SDS011;10834;52.268;6.770;2022-11-20T13:30:34;20.17;;;12.00;;
21352;SDS011;10834;52.268;6.770;2022-11-20T13:33:22;19.27;;;10.63;;
21352;SDS011;10834;52.268;6.770;2022-11-20T13:36:25;16.70;;;10.43;;
21352;SDS011;10834;52.268;6.770;2022-11-20T13:39:23;14.97;;;10.07;;
21352;SDS011;10834;52.268;6.770;2022-11-20T13:45:02;17.20;;;10.37;;
21352;SDS011;10834;52.268;6.770;2022-11-20T13:47:56;18.73;;;10.93;;
21352;SDS011;10834;52.268;6.770;2022-11-20T13:54:02;20.50;;;10.77;;
21352;SDS011;10834;52.268;6.770;2022-11-20T14:00:11;18.43;;;10.97;;
21352;SDS011;10834;52.268;6.770;2022-11-20T14:06:02;20.47;;;11.87;;
21352;SDS011;10834;52.268;6.770;2022-11-20T14:08:50;17.20;;;11.77;;
21352;SDS011;10834;52.268;6.770;2022-11-20T14:11:37;19.00;;;12.17;;
21352;SDS011;10834;52.268;6.770;2022-11-20T14:14:32;21.20;;;13.50;;
21352;SDS011;10834;52.268;6.770;2022-11-20T14:17:20;18.23;;;12.30;;
21352;SDS011;10834;52.268;6.770;2022-11-20T14:20:16;20.37;;;12.23;;
21352;SDS011;10834;52.268;6.770;2022-11-20T14:23:09;21.97;;;13.37;;
21352;SDS011;10834;52.268;6.770;2022-11-20T14:25:56;17.67;;;12.53;;
21352;SDS011;10834;52.268;6.770;2022-11-20T14:28:42;21.67;;;12.90;;
21352;SDS011;10834;52.268;6.770;2022-11-20T14:31:33;24.13;;;13.93;;
21352;SDS011;10834;52.268;6.770;2022-11-20T14:34:25;23.27;;;13.30;;
21352;SDS011;10834;52.268;6.770;2022-11-20T14:37:19;26.03;;;14.27;;
21352;SDS011;10834;52.268;6.770;2022-11-20T14:46:09;20.63;;;12.87;;
21352;SDS011;10834;52.268;6.770;2022-11-20T14:48:56;24.37;;;13.67;;
21352;SDS011;10834;52.268;6.770;2022-11-20T14:51:46;24.67;;;14.30;;
21352;SDS011;10834;52.268;6.770;2022-11-20T14:54:44;25.23;;;15.23;;
21352;SDS011;10834;52.268;6.770;2022-11-20T14:57:32;26.27;;;15.83;;
21352;SDS011;10834;52.268;6.770;2022-11-20T15:00:20;29.30;;;17.03;;
21352;SDS011;10834;52.268;6.770;2022-11-20T15:03:14;31.43;;;17.03;;
21352;SDS011;10834;52.268;6.770;2022-11-20T15:06:02;28.20;;;16.13;;
21352;SDS011;10834;52.268;6.770;2022-11-20T15:08:52;33.77;;;19.47;;
21352;SDS011;10834;52.268;6.770;2022-11-20T15:11:38;35.77;;;21.87;;
21352;SDS011;10834;52.268;6.770;2022-11-20T15:14:24;38.80;;;22.50;;
21352;SDS011;10834;52.268;6.770;2022-11-20T15:17:12;33.43;;;18.23;;
21352;SDS011;10834;52.268;6.770;2022-11-20T15:19:58;32.47;;;19.10;;
21352;SDS011;10834;52.268;6.770;2022-11-20T15:22:46;32.87;;;19.77;;
21352;SDS011;10834;52.268;6.770;2022-11-20T15:25:32;32.73;;;18.27;;
21352;SDS011;10834;52.268;6.770;2022-11-20T15:31:17;31.47;;;16.83;;
21352;SDS011;10834;52.268;6.770;2022-11-20T15:34:08;27.40;;;19.03;;
21352;SDS011;10834;52.268;6.770;2022-11-20T15:36:58;40.77;;;23.13;;
21352;SDS011;10834;52.268;6.770;2022-11-20T15:39:44;38.60;;;23.87;;
21352;SDS011;10834;52.268;6.770;2022-11-20T15:42:30;46.27;;;30.63;;
21352;SDS011;10834;52.268;6.770;2022-11-20T15:45:17;36.50;;;24.23;;
21352;SDS011;10834;52.268;6.770;2022-11-20T15:48:03;34.43;;;19.23;;
21352;SDS011;10834;52.268;6.770;2022-11-20T15:50:52;36.43;;;20.90;;
21352;SDS011;10834;52.268;6.770;2022-11-20T15:53:39;39.33;;;25.90;;
21352;SDS011;10834;52.268;6.770;2022-11-20T15:56:26;41.13;;;21.03;;
21352;SDS011;10834;52.268;6.770;2022-11-20T15:59:12;44.67;;;23.57;;
21352;SDS011;10834;52.268;6.770;2022-11-20T16:02:01;41.37;;;21.23;;
21352;SDS011;10834;52.268;6.770;2022-11-20T16:04:48;38.37;;;22.30;;
21352;SDS011;10834;52.268;6.770;2022-11-20T16:07:34;36.37;;;19.70;;
21352;SDS011;10834;52.268;6.770;2022-11-20T16:10:20;42.27;;;22.33;;
21352;SDS011;10834;52.268;6.770;2022-11-20T16:13:11;37.97;;;21.23;;
21352;SDS011;10834;52.268;6.770;2022-11-20T16:16:25;42.83;;;22.10;;
21352;SDS011;10834;52.268;6.770;2022-11-20T16:19:14;46.17;;;26.23;;
21352;SDS011;10834;52.268;6.770;2022-11-20T16:22:00;41.20;;;22.23;;
21352;SDS011;10834;52.268;6.770;2022-11-20T16:24:47;44.93;;;25.27;;
21352;SDS011;10834;52.268;6.770;2022-11-20T16:27:33;43.87;;;25.70;;
21352;SDS011;10834;52.268;6.770;2022-11-20T16:30:19;41.90;;;24.50;;
21352;SDS011;10834;52.268;6.770;2022-11-20T16:33:09;40.37;;;24.57;;
21352;SDS011;10834;52.268;6.770;2022-11-20T16:36:05;38.43;;;23.47;;
21352;SDS011;10834;52.268;6.770;2022-11-20T16:38:53;34.27;;;20.43;;
21352;SDS011;10834;52.268;6.770;2022-11-20T16:41:40;43.97;;;23.33;;
21352;SDS011;10834;52.268;6.770;2022-11-20T16:44:26;37.20;;;22.97;;
21352;SDS011;10834;52.268;6.770;2022-11-20T16:47:12;35.43;;;19.50;;
21352;SDS011;10834;52.268;6.770;2022-11-20T16:49:59;33.50;;;20.57;;
21352;SDS011;10834;52.268;6.770;2022-11-20T16:52:45;38.20;;;20.07;;
21352;SDS011;10834;52.268;6.770;2022-11-20T16:55:31;36.70;;;21.50;;
21352;SDS011;10834;52.268;6.770;2022-11-20T16:58:17;36.40;;;18.87;;
21352;SDS011;10834;52.268;6.770;2022-11-20T17:01:06;35.63;;;20.83;;
21352;SDS011;10834;52.268;6.770;2022-11-20T17:03:56;36.40;;;21.00;;
21352;SDS011;10834;52.268;6.770;2022-11-20T17:06:44;36.87;;;21.83;;
21352;SDS011;10834;52.268;6.770;2022-11-20T17:09:30;35.57;;;20.77;;
21352;SDS011;10834;52.268;6.770;2022-11-20T17:12:16;40.80;;;22.50;;
21352;SDS011;10834;52.268;6.770;2022-11-20T17:15:02;37.67;;;21.40;;
21352;SDS011;10834;52.268;6.770;2022-11-20T17:17:48;42.73;;;24.20;;
21352;SDS011;10834;52.268;6.770;2022-11-20T17:20:34;39.40;;;25.37;;
21352;SDS011;10834;52.268;6.770;2022-11-20T17:23:20;36.50;;;23.60;;
21352;SDS011;10834;52.268;6.770;2022-11-20T17:26:11;39.03;;;24.57;;
21352;SDS011;10834;52.268;6.770;2022-11-20T17:29:05;46.57;;;25.73;;
21352;SDS011;10834;52.268;6.770;2022-11-20T17:31:54;36.53;;;22.80;;
21352;SDS011;10834;52.268;6.770;2022-11-20T17:34:40;41.07;;;24.23;;
21352;SDS011;10834;52.268;6.770;2022-11-20T17:37:26;42.53;;;25.30;;
21352;SDS011;10834;52.268;6.770;2022-11-20T17:40:12;35.93;;;21.43;;
21352;SDS011;10834;52.268;6.770;2022-11-20T17:42:59;35.30;;;21.97;;
21352;SDS011;10834;52.268;6.770;2022-11-20T17:45:45;47.77;;;26.03;;
21352;SDS011;10834;52.268;6.770;2022-11-20T17:48:31;47.13;;;27.13;;
21352;SDS011;10834;52.268;6.770;2022-11-20T17:51:22;42.90;;;23.77;;